Time;durP1;ratioP1;P1;durP2;ratioP2;P2;SDS_P1;SDS_P2;PMS_P1;PMS_P2;Temp;Humidity;BMP_temperature;BMP_pressure;BME280_temperature;BME280_humidity;BME280_pressure;Samples;Min_cycle;Max_cycle;Signal;HPM_P1;HPM_P2
2020/12/10 00:00:23;;;;;;;;;;;;;;;;;;4974695;28;20776;-83
2020/12/10 00:02:50;;;;;;;;;;;;;;;;;;4973216;28;20399;-82
2020/12/10 00:05:16;;;;;;;;;;;;;;;;;;4973376;28;20402;-82
2020/12/10 00:07:42;;;;;;;;;;;;;;;;;;4970833;28;20453;-82
2020/12/10 00:10:09;;;;;;;;;;;;;;;;;;4961661;28;20430;-81
2020/12/10 00:12:35;;;;;;;;;;;;;;;;;;4974424;28;20415;-82
2020/12/10 00:15:02;;;;;;;;;;;;;;;;;;4967816;28;20399;-81
2020/12/10 00:17:28;;;;;;;;;;;;;;;;;;4973096;28;20432;-81
2020/12/10 00:19:55;;;;;;;;;;;;;;;;;;4972685;28;20476;-81
2020/12/10 00:22:21;;;;;;;;;;;;;;;;;;4979913;28;20846;-84
2020/12/10 00:24:47;;;;;;;;;;;;;;;;;;4979733;28;20398;-83
2020/12/10 00:27:14;;;;;;;;;;;;;;;;;;4984886;28;20400;-83
2020/12/10 00:29:40;;;;;;;;;;;;;;;;;;4991262;28;20443;-82
2020/12/10 00:32:07;;;;;;;;;;;;;;;;;;4990322;28;20420;-80
2020/12/10 00:34:33;;;;;;;;;;;;;;;;;;4981210;28;20406;-81
2020/12/10 00:36:59;;;;;;;;;;;;;;;;;;4979923;28;20422;-81
2020/12/10 00:39:26;;;;;;;;;;;;;;;;;;4989809;28;20450;-82
2020/12/10 00:41:52;;;;;;;;;;;;;;;;;;4980271;28;20412;-82
2020/12/10 00:44:18;;;;;;;;;;;;;;;;;;4978284;28;20445;-82
2020/12/10 00:46:45;;;;;;;;;;;;;;;;;;4977637;28;20400;-81
2020/12/10 00:49:11;;;;;;;;;;;;;;;;;;4972848;28;20951;-82
2020/12/10 00:51:37;;;;;;;;;;;;;;;;;;4977240;28;20424;-81
2020/12/10 00:54:04;;;;;;;;;;;;;;;;;;4969210;28;20449;-82
2020/12/10 00:56:30;;;;;;;;;;;;;;;;;;4960245;28;20406;-82
2020/12/10 00:58:57;;;;;;;;;;;;;;;;;;4957641;28;20789;-81
2020/12/10 01:01:23;;;;;;;;;;;;;;;;;;4969629;28;20415;-82
2020/12/10 01:03:49;;;;;;;;;;;;;;;;;;4977315;28;20400;-81
2020/12/10 01:06:16;;;;;;;;;;;;;;;;;;4967742;28;20879;-81
2020/12/10 01:08:42;;;;;;;;;;;;;;;;;;4992148;28;20388;-82
2020/12/10 01:11:08;;;;;;;;;;;;;;;;;;4987012;28;20424;-81
2020/12/10 01:13:35;;;;;;;;;;;;;;;;;;4967545;28;20402;-81
2020/12/10 01:16:01;;;;;;;;;;;;;;;;;;4969489;28;20396;-82
2020/12/10 01:18:28;;;;;;;;;;;;;;;;;;4955534;28;20399;-82
2020/12/10 01:20:54;;;;;;;;;;;;;;;;;;4969573;28;20420;-83
2020/12/10 01:23:20;;;;;;;;;;;;;;;;;;4967228;28;20403;-82
2020/12/10 01:25:47;;;;;;;;;;;;;;;;;;4959394;28;20394;-82
2020/12/10 01:28:13;;;;;;;;;;;;;;;;;;4973270;28;20407;-82
2020/12/10 01:30:39;;;;;;;;;;;;;;;;;;4984198;28;20842;-81
2020/12/10 01:33:06;;;;;;;;;;;;;;;;;;4975032;28;20421;-82
2020/12/10 01:35:32;;;;;;;;;;;;;;;;;;4964891;28;20402;-82
2020/12/10 01:37:59;;;;;;;;;;;;;;;;;;4967203;28;20415;-82
2020/12/10 01:40:25;;;;;;;;;;;;;;;;;;4964141;28;20445;-82
2020/12/10 01:42:51;;;;;;;;;;;;;;;;;;4969818;28;20845;-82
2020/12/10 01:45:18;;;;;;;;;;;;;;;;;;4975996;28;20400;-82
2020/12/10 01:47:44;;;;;;;;;;;;;;;;;;4977288;28;20427;-82
2020/12/10 01:50:10;;;;;;;;;;;;;;;;;;4977285;28;20412;-81
2020/12/10 01:52:37;;;;;;;;;;;;;;;;;;4982677;28;20409;-82
2020/12/10 01:55:03;;;;;;;;;;;;;;;;;;4971747;28;20453;-82
2020/12/10 01:57:30;;;;;;;;;;;;;;;;;;4965985;28;20855;-82
2020/12/10 01:59:56;;;;;;;;;;;;;;;;;;4972524;28;20469;-81
2020/12/10 02:02:22;;;;;;;;;;;;;;;;;;4975966;28;20437;-81
2020/12/10 02:04:49;;;;;;;;;;;;;;;;;;4972159;28;20525;-81
2020/12/10 02:07:15;;;;;;;;;;;;;;;;;;4973246;28;20400;-82
2020/12/10 02:09:42;;;;;;;;;;;;;;;;;;4960388;28;20394;-82
2020/12/10 02:12:09;;;;;;;;;;;;;;;;;;4962268;28;20419;-81
2020/12/10 02:14:35;;;;;;;;;;;;;;;;;;4962702;28;20841;-81
2020/12/10 02:17:01;;;;;;;;;;;;;;;;;;4976119;28;20408;-81
2020/12/10 02:19:28;;;;;;;;;;;;;;;;;;4962610;28;20432;-82
2020/12/10 02:21:54;;;;;;;;;;;;;;;;;;4961334;28;20388;-82
2020/12/10 02:24:20;;;;;;;;;;;;;;;;;;4975717;28;20398;-82
2020/12/10 02:26:47;;;;;;;;;;;;;;;;;;4966018;28;20392;-81
2020/12/10 02:29:14;;;;;;;;;;;;;;;;;;4979335;28;20396;-81
2020/12/10 02:31:40;;;;;;;;;;;;;;;;;;4969784;28;20419;-82
2020/12/10 02:34:07;;;;;;;;;;;;;;;;;;4959423;28;20399;-82
2020/12/10 02:36:33;;;;;;;;;;;;;;;;;;4973566;28;20402;-82
2020/12/10 02:38:59;;;;;;;;;;;;;;;;;;4969881;28;20448;-82
2020/12/10 02:41:26;;;;;;;;;;;;;;;;;;4956305;28;20410;-82
2020/12/10 02:43:52;;;;;;;;;;;;;;;;;;4969776;28;20860;-82
2020/12/10 02:46:19;;;;;;;;;;;;;;;;;;4974988;28;20399;-81
2020/12/10 02:48:45;;;;;;;;;;;;;;;;;;4974761;28;20445;-82
2020/12/10 02:51:11;;;;;;;;;;;;;;;;;;4974863;28;20485;-83
2020/12/10 02:53:38;;;;;;;;;;;;;;;;;;4972855;28;20449;-82
2020/12/10 02:56:04;;;;;;;;;;;;;;;;;;4970527;28;20422;-82
2020/12/10 02:58:30;;;;;;;;;;;;;;;;;;4999018;28;20383;-82
2020/12/10 03:00:57;;;;;;;;;;;;;;;;;;4978318;28;20430;-81
2020/12/10 03:03:23;;;;;;;;;;;;;;;;;;4958455;28;20461;-81
2020/12/10 03:05:49;;;;;;;;;;;;;;;;;;4959947;28;20391;-81
2020/12/10 03:08:16;;;;;;;;;;;;;;;;;;4968941;28;20399;-82
2020/12/10 03:10:42;;;;;;;;;;;;;;;;;;5012264;22;20426;-81
2020/12/10 03:13:09;;;;;;;;;;;;;;;;;;5040027;28;20410;-81
2020/12/10 03:15:35;;;;;;;;;;;;;;;;;;5043006;28;20381;-81
2020/12/10 03:18:01;;;;;;;;;;;;;;;;;;5050101;28;20395;-81
2020/12/10 03:20:28;;;;;;;;;;;;;;;;;;5045234;28;20457;-81
2020/12/10 03:22:54;;;;;;;;;;;;;;;;;;5026997;28;20380;-81
2020/12/10 03:25:20;;;;;;;;;;;;;;;;;;5024518;28;20769;-81
2020/12/10 03:27:47;;;;;;;;;;;;;;;;;;5018944;28;20436;-81
2020/12/10 03:30:13;;;;;;;;;;;;;;;;;;5022595;28;20410;-81
2020/12/10 03:32:40;;;;;;;;;;;;;;;;;;5023039;28;20416;-81
2020/12/10 03:35:06;;;;;;;;;;;;;;;;;;5020751;28;20393;-81
2020/12/10 03:37:32;;;;;;;;;;;;;;;;;;5021100;28;20417;-81
2020/12/10 03:39:59;;;;;;;;;;;;;;;;;;5020397;28;20412;-81
2020/12/10 03:42:25;;;;;;;;;;;;;;;;;;5023398;28;20437;-81
2020/12/10 03:44:51;;;;;;;;;;;;;;;;;;5029816;28;20435;-83
2020/12/10 03:47:18;;;;;;;;;;;;;;;;;;5022084;28;20464;-81
2020/12/10 03:49:44;;;;;;;;;;;;;;;;;;5019017;28;20448;-82
2020/12/10 03:52:11;;;;;;;;;;;;;;;;;;5020676;28;20420;-81
2020/12/10 03:54:37;;;;;;;;;;;;;;;;;;5030521;28;20395;-81
2020/12/10 03:57:03;;;;;;;;;;;;;;;;;;5029738;28;20390;-82
2020/12/10 03:59:30;;;;;;;;;;;;;;;;;;5019286;28;20388;-82
2020/12/10 04:01:56;;;;;;;;;;;;;;;;;;5022385;28;20403;-81
2020/12/10 04:04:22;;;;;;;;;;;;;;;;;;5024778;28;20414;-81
2020/12/10 04:06:49;;;;;;;;;;;;;;;;;;5027207;28;20397;-82
2020/12/10 04:09:15;;;;;;;;;;;;;;;;;;5033124;28;20391;-82
2020/12/10 04:11:41;;;;;;;;;;;;;;;;;;5035095;28;20892;-81
2020/12/10 04:14:08;;;;;;;;;;;;;;;;;;5028137;28;20395;-81
2020/12/10 04:16:34;;;;;;;;;;;;;;;;;;5032610;28;20383;-82
2020/12/10 04:19:01;;;;;;;;;;;;;;;;;;5027478;28;20763;-82
2020/12/10 04:21:27;;;;;;;;;;;;;;;;;;5026227;28;20436;-82
2020/12/10 04:23:53;;;;;;;;;;;;;;;;;;5021750;28;20398;-82
2020/12/10 04:26:20;;;;;;;;;;;;;;;;;;5023669;28;21143;-81
2020/12/10 04:28:46;;;;;;;;;;;;;;;;;;5023066;28;20386;-82
2020/12/10 04:31:12;;;;;;;;;;;;;;;;;;5020104;28;20444;-81
2020/12/10 04:33:39;;;;;;;;;;;;;;;;;;5022590;28;20408;-81
2020/12/10 04:36:05;;;;;;;;;;;;;;;;;;5019375;28;20728;-82
2020/12/10 04:38:31;;;;;;;;;;;;;;;;;;5024235;28;20393;-82
2020/12/10 04:40:58;;;;;;;;;;;;;;;;;;5032739;28;20406;-83
2020/12/10 04:43:26;;;;;;;;;;;;;;;;;;5026727;28;20917;-82
2020/12/10 04:45:53;;;;;;;;;;;;;;;;;;5046742;28;20446;-83
2020/12/10 04:48:19;;;;;;;;;;;;;;;;;;5030332;28;20452;-83
2020/12/10 04:50:45;;;;;;;;;;;;;;;;;;5025880;28;20409;-83
2020/12/10 04:53:12;;;;;;;;;;;;;;;;;;5026334;28;20416;-83
2020/12/10 04:55:38;;;;;;;;;;;;;;;;;;5031864;28;20411;-82
2020/12/10 04:58:05;;;;;;;;;;;;;;;;;;5028035;28;20390;-84
2020/12/10 05:00:31;;;;;;;;;;;;;;;;;;5026153;28;20410;-84
2020/12/10 05:02:57;;;;;;;;;;;;;;;;;;5031919;28;20390;-83
2020/12/10 05:05:24;;;;;;;;;;;;;;;;;;5033326;28;20395;-83
2020/12/10 05:07:50;;;;;;;;;;;;;;;;;;5029222;28;20396;-84
2020/12/10 05:10:17;;;;;;;;;;;;;;;;;;5027819;28;20421;-84
2020/12/10 05:12:43;;;;;;;;;;;;;;;;;;5027668;28;20392;-85
2020/12/10 05:15:09;;;;;;;;;;;;;;;;;;5031699;28;20387;-84
2020/12/10 05:17:36;;;;;;;;;;;;;;;;;;5027614;28;20393;-85
2020/12/10 05:20:02;;;;;;;;;;;;;;;;;;5026434;28;20441;-85
2020/12/10 05:22:29;;;;;;;;;;;;;;;;;;5038338;28;20390;-85
2020/12/10 05:24:55;;;;;;;;;;;;;;;;;;5036855;28;20410;-84
2020/12/10 05:27:21;;;;;;;;;;;;;;;;;;5042879;28;20437;-85
2020/12/10 05:29:48;;;;;;;;;;;;;;;;;;5022802;28;20417;-85
2020/12/10 05:32:14;;;;;;;;;;;;;;;;;;5036817;28;20416;-86
2020/12/10 05:34:41;;;;;;;;;;;;;;;;;;5038336;28;20390;-85
2020/12/10 05:37:07;;;;;;;;;;;;;;;;;;5034388;28;20414;-85
2020/12/10 05:39:33;;;;;;;;;;;;;;;;;;5029864;28;20390;-83
2020/12/10 05:42:00;;;;;;;;;;;;;;;;;;5025571;28;20406;-83
2020/12/10 05:44:27;;;;;;;;;;;;;;;;;;5029611;28;20396;-84
2020/12/10 05:46:53;;;;;;;;;;;;;;;;;;5021435;28;20428;-83
2020/12/10 05:49:20;;;;;;;;;;;;;;;;;;5022205;28;20476;-83
2020/12/10 05:51:46;;;;;;;;;;;;;;;;;;5029220;28;20478;-82
2020/12/10 05:54:13;;;;;;;;;;;;;;;;;;5023859;28;20743;-84
2020/12/10 05:56:39;;;;;;;;;;;;;;;;;;5026488;28;20384;-83
2020/12/10 05:59:05;;;;;;;;;;;;;;;;;;5037331;28;20388;-84
2020/12/10 06:01:32;;;;;;;;;;;;;;;;;;5035697;28;20474;-84
2020/12/10 06:03:59;;;;;;;;;;;;;;;;;;5034588;28;20411;-85
2020/12/10 06:06:25;;;;;;;;;;;;;;;;;;5019165;28;20785;-84
2020/12/10 06:08:51;;;;;;;;;;;;;;;;;;5024573;28;20394;-83
2020/12/10 06:11:18;;;;;;;;;;;;;;;;;;5025912;28;20791;-82
2020/12/10 06:13:45;;;;;;;;;;;;;;;;;;5022769;28;20398;-81
2020/12/10 06:16:11;;;;;;;;;;;;;;;;;;5032148;28;20390;-83
2020/12/10 06:18:37;;;;;;;;;;;;;;;;;;5027286;28;20436;-81
2020/12/10 06:21:04;;;;;;;;;;;;;;;;;;5022220;28;20846;-82
2020/12/10 06:23:35;;;;;;;;;;;;;;;;;;5036681;28;20391;-85
2020/12/10 06:26:01;;;;;;;;;;;;;;;;;;5036180;28;20433;-84
2020/12/10 06:28:28;;;;;;;;;;;;;;;;;;5020298;28;20388;-81
2020/12/10 06:30:54;;;;;;;;;;;;;;;;;;5020428;28;20414;-84
2020/12/10 06:33:20;;;;;;;;;;;;;;;;;;5035131;28;20950;-83
2020/12/10 06:35:47;;;;;;;;;;;;;;;;;;5078540;28;20451;-84
2020/12/10 06:38:13;;;;;;;;;;;;;;;;;;5064404;28;20446;-84
2020/12/10 06:40:40;;;;;;;;;;;;;;;;;;5021183;28;20825;-81
2020/12/10 06:43:06;;;;;;;;;;;;;;;;;;5020600;28;20396;-81
2020/12/10 06:45:34;;;;;;;;;;;;;;;;;;5029487;28;20960;-84
2020/12/10 06:48:00;;;;;;;;;;;;;;;;;;5024478;28;20910;-85
2020/12/10 06:50:26;;;;;;;;;;;;;;;;;;5043814;28;20447;-85
2020/12/10 06:52:53;;;;;;;;;;;;;;;;;;5039237;28;20411;-84
2020/12/10 06:55:19;;;;;;;;;;;;;;;;;;5022780;28;20393;-85
2020/12/10 06:57:45;;;;;;;;;;;;;;;;;;5025970;28;20838;-83
2020/12/10 07:00:12;;;;;;;;;;;;;;;;;;5024872;28;20409;-84
2020/12/10 07:02:38;;;;;;;;;;;;;;;;;;5031471;28;20816;-85
2020/12/10 07:05:05;;;;;;;;;;;;;;;;;;5041866;28;20401;-84
2020/12/10 07:07:31;;;;;;;;;;;;;;;;;;5035643;28;20384;-84
2020/12/10 07:09:58;;;;;;;;;;;;;;;;;;5045546;28;20391;-84
2020/12/10 07:12:25;;;;;;;;;;;;;;;;;;5026534;28;20477;-85
2020/12/10 07:14:51;;;;;;;;;;;;;;;;;;5035081;28;20387;-84
2020/12/10 07:17:18;;;;;;;;;;;;;;;;;;5046964;28;20394;-85
2020/12/10 07:19:47;;;;;;;;;;;;;;;;;;5029736;28;20385;-85
2020/12/10 07:22:13;;;;;;;;;;;;;;;;;;5025441;28;20421;-85
2020/12/10 07:24:40;;;;;;;;;;;;;;;;;;5030022;28;20390;-85
2020/12/10 07:27:06;;;;;;;;;;;;;;;;;;5033879;28;20394;-85
2020/12/10 07:29:32;;;;;;;;;;;;;;;;;;5023527;28;20452;-85
2020/12/10 07:31:59;;;;;;;;;;;;;;;;;;5023378;28;20403;-85
2020/12/10 07:34:25;;;;;;;;;;;;;;;;;;5020415;28;20386;-84
2020/12/10 07:36:53;;;;;;;;;;;;;;;;;;5024435;28;20389;-84
2020/12/10 07:39:19;;;;;;;;;;;;;;;;;;5020224;28;20460;-85
2020/12/10 07:41:45;;;;;;;;;;;;;;;;;;5031913;28;20906;-84
2020/12/10 07:44:12;;;;;;;;;;;;;;;;;;5027077;28;20387;-84
2020/12/10 07:54:45;;;;;;;;;;;;;;;;;;4974844;28;20402;-86
2020/12/10 08:13:48;;;;;;;;;;;;;;;;;;4979093;28;20463;-85
2020/12/10 08:16:14;;;;;;;;;;;;;;;;;;4976789;28;20407;-85
2020/12/10 08:18:41;;;;;;;;;;;;;;;;;;4977424;28;20401;-86
2020/12/10 08:21:13;;;;;;;;;;;;;;;;;;4963295;28;20927;-85
2020/12/10 08:23:40;;;;;;;;;;;;;;;;;;4981751;28;20399;-85
2020/12/10 08:26:12;;;;;;;;;;;;;;;;;;4987535;28;20385;-85
2020/12/10 08:28:38;;;;;;;;;;;;;;;;;;5006443;28;20433;-85
2020/12/10 08:31:07;;;;;;;;;;;;;;;;;;5034164;28;20417;-85
2020/12/10 08:33:40;;;;;;;;;;;;;;;;;;5042821;28;20477;-87
2020/12/10 08:36:09;;;;;;;;;;;;;;;;;;5029935;28;20386;-85
2020/12/10 08:38:36;;;;;;;;;;;;;;;;;;5021590;28;20397;-85
2020/12/10 08:41:07;;;;;;;;;;;;;;;;;;5020340;28;20464;-85
2020/12/10 08:43:37;;;;;;;;;;;;;;;;;;5031704;28;20445;-86
2020/12/10 08:46:04;;;;;;;;;;;;;;;;;;5018570;28;20400;-85
2020/12/10 08:48:37;;;;;;;;;;;;;;;;;;5024726;28;20735;-85
2020/12/10 08:51:13;;;;;;;;;;;;;;;;;;5038259;28;20890;-86
2020/12/10 08:53:40;;;;;;;;;;;;;;;;;;5027580;28;20872;-86
2020/12/10 08:56:06;;;;;;;;;;;;;;;;;;5544868;22;20420;-82
2020/12/10 08:58:34;;;;;;;;;;;;;;;;;;5044767;28;20404;-83
2020/12/10 09:01:04;;;;;;;;;;;;;;;;;;5039148;28;20457;-82
2020/12/10 09:03:31;;;;;;;;;;;;;;;;;;5060134;28;20392;-83
2020/12/10 09:05:57;;;;;;;;;;;;;;;;;;5078874;28;20396;-82
2020/12/10 09:08:26;;;;;;;;;;;;;;;;;;5080361;28;20360;-83
2020/12/10 09:10:52;;;;;;;;;;;;;;;;;;5055488;28;20389;-82
2020/12/10 09:13:23;;;;;;;;;;;;;;;;;;5044759;28;20905;-85
2020/12/10 09:15:49;;;;;;;;;;;;;;;;;;5047631;28;20407;-86
2020/12/10 09:18:15;;;;;;;;;;;;;;;;;;5056640;28;20384;-84
2020/12/10 09:20:42;;;;;;;;;;;;;;;;;;5042051;28;20387;-83
2020/12/10 09:23:08;;;;;;;;;;;;;;;;;;5038432;28;20470;-84
2020/12/10 09:25:35;;;;;;;;;;;;;;;;;;5039348;28;20395;-85
2020/12/10 09:28:01;;;;;;;;;;;;;;;;;;5039424;28;20403;-85
2020/12/10 09:30:28;;;;;;;;;;;;;;;;;;5044005;28;20373;-86
2020/12/10 09:32:54;;;;;;;;;;;;;;;;;;5063746;28;20419;-84
2020/12/10 09:35:20;;;;;;;;;;;;;;;;;;5067389;28;20406;-81
2020/12/10 09:37:47;;;;;;;;;;;;;;;;;;5053491;28;20839;-85
2020/12/10 09:40:13;;;;;;;;;;;;;;;;;;5035828;28;20383;-84
2020/12/10 09:42:40;;;;;;;;;;;;;;;;;;5035815;28;20391;-84
2020/12/10 09:45:06;;;;;;;;;;;;;;;;;;5028936;28;20393;-84
2020/12/10 09:47:32;;;;;;;;;;;;;;;;;;5015550;28;20424;-84
2020/12/10 09:49:59;;;;;;;;;;;;;;;;;;5025462;28;20790;-85
2020/12/10 09:52:26;;;;;;;;;;;;;;;;;;5030115;28;20403;-84
2020/12/10 09:55:05;;;;;;;;;;;;;;;;;;5043746;28;20384;-84
2020/12/10 09:57:32;;;;;;;;;;;;;;;;;;5054517;28;20424;-83
2020/12/10 09:59:58;;;;;;;;;;;;;;;;;;5055500;28;20392;-85
2020/12/10 10:02:25;;;;;;;;;;;;;;;;;;5056212;28;20384;-85
2020/12/10 10:04:51;;;;;;;;;;;;;;;;;;5048893;28;20398;-84
2020/12/10 10:07:17;;;;;;;;;;;;;;;;;;5048869;28;20412;-85
2020/12/10 10:09:44;;;;;;;;;;;;;;;;;;5057974;28;20371;-83
2020/12/10 10:12:11;;;;;;;;;;;;;;;;;;5055389;28;20733;-85
2020/12/10 10:14:37;;;;;;;;;;;;;;;;;;5038474;28;20397;-84
2020/12/10 10:17:04;;;;;;;;;;;;;;;;;;5034064;28;20422;-85
2020/12/10 10:19:30;;;;;;;;;;;;;;;;;;5017138;28;20402;-85
2020/12/10 10:21:57;;;;;;;;;;;;;;;;;;5018596;28;20382;-85
2020/12/10 10:24:24;;;;;;;;;;;;;;;;;;5051963;28;20418;-86
2020/12/10 10:26:50;;;;;;;;;;;;;;;;;;5039832;28;20485;-84
2020/12/10 10:29:20;;;;;;;;;;;;;;;;;;5036658;28;20402;-85
2020/12/10 10:31:46;;;;;;;;;;;;;;;;;;5037365;28;20473;-86
2020/12/10 10:34:13;;;;;;;;;;;;;;;;;;5035396;28;20470;-84
2020/12/10 10:36:39;;;;;;;;;;;;;;;;;;5037430;28;20419;-86
2020/12/10 10:39:05;;;;;;;;;;;;;;;;;;5047887;28;20384;-85
2020/12/10 10:41:32;;;;;;;;;;;;;;;;;;5051852;28;20386;-84
2020/12/10 10:43:58;;;;;;;;;;;;;;;;;;5058486;28;20390;-82
2020/12/10 10:46:25;;;;;;;;;;;;;;;;;;5057194;28;20391;-81
2020/12/10 10:48:51;;;;;;;;;;;;;;;;;;5057490;28;20402;-85
2020/12/10 10:51:17;;;;;;;;;;;;;;;;;;5053927;28;20390;-83
2020/12/10 10:53:44;;;;;;;;;;;;;;;;;;5048738;28;20397;-87
2020/12/10 10:56:11;;;;;;;;;;;;;;;;;;5042035;28;20456;-82
2020/12/10 10:58:39;;;;;;;;;;;;;;;;;;5046436;28;20443;-81
2020/12/10 11:01:05;;;;;;;;;;;;;;;;;;5056032;28;20442;-80
2020/12/10 11:03:32;;;;;;;;;;;;;;;;;;5037235;28;20387;-84
2020/12/10 11:05:58;;;;;;;;;;;;;;;;;;5037248;28;20470;-86
2020/12/10 11:08:25;;;;;;;;;;;;;;;;;;5057646;28;20392;-85
2020/12/10 11:10:54;;;;;;;;;;;;;;;;;;5043746;28;20867;-86
2020/12/10 11:13:21;;;;;;;;;;;;;;;;;;5036187;28;20435;-85
2020/12/10 11:15:47;;;;;;;;;;;;;;;;;;5049705;28;20407;-86
2020/12/10 11:18:13;;;;;;;;;;;;;;;;;;5042306;28;20396;-85
2020/12/10 11:20:40;;;;;;;;;;;;;;;;;;5044238;28;21170;-84
2020/12/10 11:23:06;;;;;;;;;;;;;;;;;;5046673;28;20391;-82
2020/12/10 11:25:33;;;;;;;;;;;;;;;;;;5044977;28;20390;-85
2020/12/10 11:27:59;;;;;;;;;;;;;;;;;;5037678;28;20455;-84
2020/12/10 11:30:25;;;;;;;;;;;;;;;;;;5061133;28;20426;-84
2020/12/10 11:32:52;;;;;;;;;;;;;;;;;;5035986;28;20402;-85
2020/12/10 11:35:18;;;;;;;;;;;;;;;;;;5043285;28;20451;-84
2020/12/10 11:37:45;;;;;;;;;;;;;;;;;;5038008;28;20393;-84
2020/12/10 11:40:11;;;;;;;;;;;;;;;;;;5047556;28;20825;-85
2020/12/10 11:42:37;;;;;;;;;;;;;;;;;;5042797;28;20437;-85
2020/12/10 11:45:04;;;;;;;;;;;;;;;;;;5044048;28;20383;-85
2020/12/10 11:47:30;;;;;;;;;;;;;;;;;;5041573;28;20889;-84
2020/12/10 11:49:57;;;;;;;;;;;;;;;;;;5046092;28;20383;-84
2020/12/10 11:52:23;;;;;;;;;;;;;;;;;;5058628;28;20407;-84
2020/12/10 11:54:50;;;;;;;;;;;;;;;;;;5049288;28;20422;-85
2020/12/10 11:57:16;;;;;;;;;;;;;;;;;;5061207;28;20424;-85
2020/12/10 11:59:43;;;;;;;;;;;;;;;;;;5056916;28;20431;-85
2020/12/10 12:02:09;;;;;;;;;;;;;;;;;;5069429;28;20407;-84
2020/12/10 12:04:35;;;;;;;;;;;;;;;;;;5050887;28;20457;-84
2020/12/10 12:07:02;;;;;;;;;;;;;;;;;;5055966;28;20415;-84
2020/12/10 12:09:28;;;;;;;;;;;;;;;;;;5048310;28;20410;-83
2020/12/10 12:11:55;;;;;;;;;;;;;;;;;;5050132;28;20387;-84
2020/12/10 12:14:21;;;;;;;;;;;;;;;;;;5059005;28;20395;-84
2020/12/10 12:16:53;;;;;;;;;;;;;;;;;;5051103;28;20406;-80
2020/12/10 12:19:20;;;;;;;;;;;;;;;;;;5059021;28;20404;-81
2020/12/10 12:21:46;;;;;;;;;;;;;;;;;;5060628;28;20399;-84
2020/12/10 12:24:13;;;;;;;;;;;;;;;;;;5060015;28;20359;-83
2020/12/10 12:26:39;;;;;;;;;;;;;;;;;;5060281;28;20405;-83
2020/12/10 12:29:06;;;;;;;;;;;;;;;;;;5045124;28;20387;-88
2020/12/10 12:31:32;;;;;;;;;;;;;;;;;;5027413;28;20389;-85
2020/12/10 12:33:59;;;;;;;;;;;;;;;;;;5033441;28;20416;-84
2020/12/10 12:36:25;;;;;;;;;;;;;;;;;;5044188;28;20415;-85
2020/12/10 12:38:52;;;;;;;;;;;;;;;;;;5044878;28;20384;-88
2020/12/10 12:41:18;;;;;;;;;;;;;;;;;;5032770;28;20429;-89
2020/12/10 12:43:44;;;;;;;;;;;;;;;;;;5041106;28;20387;-85
2020/12/10 12:46:11;;;;;;;;;;;;;;;;;;5033296;28;20470;-83
2020/12/10 12:48:37;;;;;;;;;;;;;;;;;;5038085;28;20387;-83
2020/12/10 12:51:04;;;;;;;;;;;;;;;;;;5047827;28;20386;-82
2020/12/10 12:53:33;;;;;;;;;;;;;;;;;;5042129;28;20410;-82
2020/12/10 12:55:59;;;;;;;;;;;;;;;;;;5038387;28;20407;-82
2020/12/10 12:58:26;;;;;;;;;;;;;;;;;;5026492;28;20391;-84
2020/12/10 13:00:52;;;;;;;;;;;;;;;;;;5039781;28;20383;-82
2020/12/10 13:03:20;;;;;;;;;;;;;;;;;;5035914;28;21414;-82
2020/12/10 13:05:46;;;;;;;;;;;;;;;;;;5033038;28;20409;-82
2020/12/10 13:08:13;;;;;;;;;;;;;;;;;;5027187;28;20398;-84
2020/12/10 13:10:41;;;;;;;;;;;;;;;;;;5034575;28;20846;-80
2020/12/10 13:13:08;;;;;;;;;;;;;;;;;;5040226;28;20449;-83
2020/12/10 13:15:35;;;;;;;;;;;;;;;;;;5030951;28;20452;-81
2020/12/10 13:18:02;;;;;;;;;;;;;;;;;;5030812;28;20409;-83
2020/12/10 13:20:30;;;;;;;;;;;;;;;;;;5044110;28;20369;-83
2020/12/10 13:22:56;;;;;;;;;;;;;;;;;;5044020;28;20748;-83
2020/12/10 13:25:24;;;;;;;;;;;;;;;;;;5020896;28;20440;-83
2020/12/10 13:27:50;;;;;;;;;;;;;;;;;;5035061;28;20436;-82
2020/12/10 13:30:19;;;;;;;;;;;;;;;;;;5037581;28;20418;-83
2020/12/10 13:32:46;;;;;;;;;;;;;;;;;;5045197;28;20404;-82
2020/12/10 13:35:15;;;;;;;;;;;;;;;;;;5042876;28;20402;-83
2020/12/10 13:37:41;;;;;;;;;;;;;;;;;;5036149;28;20410;-83
2020/12/10 13:40:08;;;;;;;;;;;;;;;;;;5030680;28;20405;-84
2020/12/10 13:42:36;;;;;;;;;;;;;;;;;;5035192;28;20383;-83
2020/12/10 13:45:03;;;;;;;;;;;;;;;;;;5037918;28;20386;-84
2020/12/10 13:47:31;;;;;;;;;;;;;;;;;;5041992;28;20415;-82
2020/12/10 13:49:57;;;;;;;;;;;;;;;;;;5039625;28;20390;-84
2020/12/10 13:52:23;;;;;;;;;;;;;;;;;;5044319;28;20403;-83
2020/12/10 13:54:50;;;;;;;;;;;;;;;;;;5042441;28;20391;-82
2020/12/10 13:57:16;;;;;;;;;;;;;;;;;;5044478;28;20416;-80
2020/12/10 13:59:43;;;;;;;;;;;;;;;;;;5037196;28;20388;-80
2020/12/10 14:02:09;;;;;;;;;;;;;;;;;;5053277;28;20430;-81
2020/12/10 14:04:36;;;;;;;;;;;;;;;;;;5037060;28;20392;-82
2020/12/10 14:07:02;;;;;;;;;;;;;;;;;;5033823;28;20409;-82
2020/12/10 14:09:29;;;;;;;;;;;;;;;;;;5032552;28;20441;-83
2020/12/10 14:11:55;;;;;;;;;;;;;;;;;;5031319;28;20382;-83
2020/12/10 14:14:22;;;;;;;;;;;;;;;;;;5038051;28;20383;-83
2020/12/10 14:16:48;;;;;;;;;;;;;;;;;;5036391;28;20403;-82
2020/12/10 14:19:14;;;;;;;;;;;;;;;;;;5044270;28;20414;-82
2020/12/10 14:21:41;;;;;;;;;;;;;;;;;;5037982;28;20393;-83
2020/12/10 14:24:07;;;;;;;;;;;;;;;;;;5042346;28;20387;-83
2020/12/10 14:26:34;;;;;;;;;;;;;;;;;;5028730;28;20416;-83
2020/12/10 14:29:01;;;;;;;;;;;;;;;;;;5041600;28;20448;-83
2020/12/10 14:31:28;;;;;;;;;;;;;;;;;;5044756;28;20390;-83
2020/12/10 14:33:54;;;;;;;;;;;;;;;;;;5038492;28;20471;-83
2020/12/10 14:36:21;;;;;;;;;;;;;;;;;;5044583;28;20399;-81
2020/12/10 14:38:47;;;;;;;;;;;;;;;;;;5053182;28;20399;-82
2020/12/10 14:41:14;;;;;;;;;;;;;;;;;;5062425;28;20395;-83
2020/12/10 14:43:40;;;;;;;;;;;;;;;;;;5069017;28;20368;-82
2020/12/10 14:46:07;;;;;;;;;;;;;;;;;;5067796;28;20414;-82
2020/12/10 14:48:33;;;;;;;;;;;;;;;;;;5038369;28;20386;-83
2020/12/10 14:50:59;;;;;;;;;;;;;;;;;;5036935;28;20390;-84
2020/12/10 14:53:26;;;;;;;;;;;;;;;;;;5034264;28;20912;-82
2020/12/10 14:55:52;;;;;;;;;;;;;;;;;;5033179;28;20415;-82
2020/12/10 14:58:19;;;;;;;;;;;;;;;;;;5030923;28;20402;-83
2020/12/10 15:00:45;;;;;;;;;;;;;;;;;;5028148;28;20388;-83
2020/12/10 15:03:12;;;;;;;;;;;;;;;;;;5034537;28;20396;-82
2020/12/10 15:05:38;;;;;;;;;;;;;;;;;;5034595;28;20492;-82
2020/12/10 15:08:05;;;;;;;;;;;;;;;;;;5042101;28;20387;-83
2020/12/10 15:10:31;;;;;;;;;;;;;;;;;;5041318;28;20394;-83
2020/12/10 15:12:57;;;;;;;;;;;;;;;;;;5056815;28;20406;-82
2020/12/10 15:15:24;;;;;;;;;;;;;;;;;;5058340;28;20430;-82
2020/12/10 15:17:50;;;;;;;;;;;;;;;;;;5048296;28;20383;-83
2020/12/10 15:20:17;;;;;;;;;;;;;;;;;;5040446;28;20380;-83
2020/12/10 15:22:44;;;;;;;;;;;;;;;;;;5043917;28;20380;-83
2020/12/10 15:25:10;;;;;;;;;;;;;;;;;;5042220;28;20409;-83
2020/12/10 15:27:36;;;;;;;;;;;;;;;;;;5039574;28;20411;-83
2020/12/10 15:30:03;;;;;;;;;;;;;;;;;;5041943;28;20391;-83
2020/12/10 15:32:29;;;;;;;;;;;;;;;;;;5050716;28;20817;-84
2020/12/10 15:34:56;;;;;;;;;;;;;;;;;;5046549;28;20386;-85
2020/12/10 15:37:22;;;;;;;;;;;;;;;;;;5046518;28;20874;-83
2020/12/10 15:39:48;;;;;;;;;;;;;;;;;;5050892;28;20402;-83
2020/12/10 15:42:15;;;;;;;;;;;;;;;;;;5062490;28;20366;-80
2020/12/10 15:44:41;;;;;;;;;;;;;;;;;;5061345;28;20393;-80
2020/12/10 15:47:08;;;;;;;;;;;;;;;;;;5057103;28;20499;-82
2020/12/10 15:49:34;;;;;;;;;;;;;;;;;;5040228;28;20860;-81
2020/12/10 15:52:00;;;;;;;;;;;;;;;;;;5038389;28;20391;-82
2020/12/10 15:54:27;;;;;;;;;;;;;;;;;;5034740;28;20380;-83
2020/12/10 15:56:53;;;;;;;;;;;;;;;;;;5023027;28;20418;-84
2020/12/10 15:59:20;;;;;;;;;;;;;;;;;;5041736;28;20394;-82
2020/12/10 16:06:50;;;;;;;;;;;;;;;;;;5047451;28;20401;-83
2020/12/10 16:09:17;;;;;;;;;;;;;;;;;;5059647;28;20383;-81
2020/12/10 16:11:43;;;;;;;;;;;;;;;;;;5041273;28;20407;-81
2020/12/10 16:14:09;;;;;;;;;;;;;;;;;;5040148;28;20875;-82
2020/12/10 16:16:38;;;;;;;;;;;;;;;;;;5042311;28;20418;-83
2020/12/10 16:19:05;;;;;;;;;;;;;;;;;;5040366;28;20478;-84
2020/12/10 16:21:31;;;;;;;;;;;;;;;;;;5041924;28;20422;-80
2020/12/10 16:23:58;;;;;;;;;;;;;;;;;;5040286;28;20395;-81
2020/12/10 16:26:24;;;;;;;;;;;;;;;;;;5041780;28;20406;-81
2020/12/10 16:28:50;;;;;;;;;;;;;;;;;;5047418;28;20449;-84
2020/12/10 16:31:18;;;;;;;;;;;;;;;;;;5040070;28;20402;-83
2020/12/10 16:33:44;;;;;;;;;;;;;;;;;;5020464;28;20429;-84
2020/12/10 16:36:10;;;;;;;;;;;;;;;;;;5020756;28;20380;-83
2020/12/10 16:38:37;;;;;;;;;;;;;;;;;;5020717;28;20469;-83
2020/12/10 16:41:03;;;;;;;;;;;;;;;;;;5020878;28;20846;-83
2020/12/10 16:43:30;;;;;;;;;;;;;;;;;;5039753;28;20383;-82
2020/12/10 16:45:57;;;;;;;;;;;;;;;;;;5046212;28;20383;-83
2020/12/10 16:48:24;;;;;;;;;;;;;;;;;;5024635;28;20854;-82
2020/12/10 16:50:50;;;;;;;;;;;;;;;;;;5036370;28;20846;-83
2020/12/10 16:53:16;;;;;;;;;;;;;;;;;;5039104;28;20419;-83
2020/12/10 16:55:43;;;;;;;;;;;;;;;;;;5031688;28;20398;-83
2020/12/10 16:58:10;;;;;;;;;;;;;;;;;;5038545;28;20390;-82
2020/12/10 17:00:36;;;;;;;;;;;;;;;;;;5040340;28;20393;-82
2020/12/10 17:03:06;;;;;;;;;;;;;;;;;;5056729;28;20399;-84
2020/12/10 17:05:35;;;;;;;;;;;;;;;;;;5040906;28;20398;-84
2020/12/10 17:08:01;;;;;;;;;;;;;;;;;;5044569;28;20430;-83
2020/12/10 17:10:28;;;;;;;;;;;;;;;;;;5040340;28;20398;-84